Time;durP1;ratioP1;P1;durP2;ratioP2;P2;SDS_P1;SDS_P2;PMS_P1;PMS_P2;Temp;Humidity;BMP_temperature;BMP_pressure;BME280_temperature;BME280_humidity;BME280_pressure;Samples;Min_cycle;Max_cycle;Signal;HPM_P1;HPM_P2
2024/03/25 00:01:44;0.00;0.00;0.62;0.00;0.00;0.62;3.03;1.67;;;21.00;23.50;;;;;;2271281;61;20355;-65
2024/03/25 00:04:10;0.00;0.00;0.62;0.00;0.00;0.62;3.20;2.13;;;21.00;23.50;;;;;;2271192;61;20386;-65
2024/03/25 00:06:36;0.00;0.00;0.62;0.00;0.00;0.62;3.13;1.77;;;21.00;23.50;;;;;;2271643;61;20367;-66
2024/03/25 00:09:03;0.00;0.00;0.62;0.00;0.00;0.62;3.30;1.70;;;21.00;23.50;;;;;;2271508;60;20369;-64
2024/03/25 00:11:29;0.00;0.00;0.62;0.00;0.00;0.62;2.10;1.53;;;21.00;23.50;;;;;;2271329;60;20355;-65
2024/03/25 00:13:56;0.00;0.00;0.62;0.00;0.00;0.62;3.73;2.03;;;21.00;24.00;;;;;;2271715;61;20346;-65
2024/03/25 00:16:24;0.00;0.00;0.62;0.00;0.00;0.62;2.40;1.60;;;21.00;23.50;;;;;;2271591;61;20394;-65
2024/03/25 00:18:50;0.00;0.00;0.62;0.00;0.00;0.62;3.80;2.00;;;21.00;23.50;;;;;;2271440;61;20359;-65
2024/03/25 00:21:16;0.00;0.00;0.62;0.00;0.00;0.62;2.73;1.63;;;21.00;23.50;;;;;;2271490;61;20347;-65
2024/03/25 00:23:42;0.00;0.00;0.62;0.00;0.00;0.62;2.97;1.63;;;20.90;23.40;;;;;;2271374;61;20383;-65
2024/03/25 00:26:08;0.00;0.00;0.62;0.00;0.00;0.62;4.10;1.73;;;21.00;23.50;;;;;;2271404;61;20429;-65
2024/03/25 00:28:34;0.00;0.00;0.62;0.00;0.00;0.62;2.20;1.50;;;21.00;23.50;;;;;;2271758;61;20351;-67
2024/03/25 00:31:00;0.00;0.00;0.62;0.00;0.00;0.62;3.03;1.87;;;21.00;23.50;;;;;;2271769;61;20411;-65
2024/03/25 00:33:28;0.00;0.00;0.62;0.00;0.00;0.62;3.70;1.83;;;21.00;23.50;;;;;;2271458;61;20869;-65
2024/03/25 00:35:54;0.00;0.00;0.62;0.00;0.00;0.62;3.17;1.97;;;21.00;23.50;;;;;;2271401;61;20919;-66
2024/03/25 00:38:20;0.00;0.00;0.62;0.00;0.00;0.62;2.50;1.40;;;21.00;23.50;;;;;;2271529;61;20382;-65
2024/03/25 00:40:47;0.00;0.00;0.62;0.00;0.00;0.62;2.03;1.47;;;21.00;23.50;;;;;;2271723;61;20453;-65
2024/03/25 00:43:14;0.00;0.00;0.62;0.00;0.00;0.62;3.63;1.50;;;21.00;23.50;;;;;;2271336;61;20508;-66
2024/03/25 00:45:40;0.00;0.00;0.62;0.00;0.00;0.62;2.53;1.30;;;21.00;23.50;;;;;;2271435;61;20355;-65
2024/03/25 00:48:07;0.00;0.00;0.62;0.00;0.00;0.62;2.03;1.30;;;21.00;23.50;;;;;;2271612;61;20369;-65
2024/03/25 00:50:35;0.00;0.00;0.62;0.00;0.00;0.62;2.57;1.60;;;21.00;23.50;;;;;;2271259;61;20381;-66
2024/03/25 00:53:01;0.00;0.00;0.62;0.00;0.00;0.62;2.23;1.63;;;21.00;23.50;;;;;;2271634;61;20752;-65
2024/03/25 00:55:27;0.00;0.00;0.62;0.00;0.00;0.62;3.20;1.80;;;21.00;23.50;;;;;;2271319;61;20355;-64
2024/03/25 00:57:53;0.00;0.00;0.62;0.00;0.00;0.62;3.60;1.73;;;21.00;23.50;;;;;;2271414;61;20406;-66
2024/03/25 01:00:20;0.00;0.00;0.62;0.00;0.00;0.62;2.60;1.57;;;21.00;23.50;;;;;;2271555;61;20872;-66
2024/03/25 01:02:46;0.00;0.00;0.62;0.00;0.00;0.62;1.67;1.03;;;20.90;23.40;;;;;;2270984;61;20376;-65
2024/03/25 01:05:13;0.00;0.00;0.62;0.00;0.00;0.62;2.90;1.60;;;21.00;23.50;;;;;;2271366;61;20359;-65
2024/03/25 01:07:40;0.00;0.00;0.62;0.00;0.00;0.62;3.80;1.80;;;21.00;23.50;;;;;;2271366;61;20371;-66
2024/03/25 01:10:07;0.00;0.00;0.62;0.00;0.00;0.62;4.27;1.37;;;21.00;23.50;;;;;;2271546;61;20903;-65
2024/03/25 01:12:34;0.00;0.00;0.62;0.00;0.00;0.62;2.20;1.60;;;21.00;23.50;;;;;;2271090;61;21115;-65
2024/03/25 01:15:00;0.00;0.00;0.62;0.00;0.00;0.62;3.40;1.90;;;21.00;23.50;;;;;;2271470;61;20362;-65
2024/03/25 01:17:26;0.00;0.00;0.62;0.00;0.00;0.62;3.47;1.80;;;21.00;23.50;;;;;;2271558;61;20378;-65
2024/03/25 01:19:52;0.00;0.00;0.62;0.00;0.00;0.62;2.80;1.80;;;21.00;23.50;;;;;;2271299;61;20845;-65
2024/03/25 01:22:18;0.00;0.00;0.62;0.00;0.00;0.62;3.40;1.80;;;21.00;23.50;;;;;;2271346;60;20379;-65
2024/03/25 01:24:46;0.00;0.00;0.62;0.00;0.00;0.62;2.87;1.90;;;21.00;23.50;;;;;;2271688;60;20348;-65
2024/03/25 01:27:12;0.00;0.00;0.62;0.00;0.00;0.62;3.77;1.67;;;21.00;23.50;;;;;;2271226;61;20391;-65
2024/03/25 01:29:38;0.00;0.00;0.62;0.00;0.00;0.62;2.60;1.47;;;21.00;23.50;;;;;;2271203;61;20347;-64
2024/03/25 01:32:05;0.00;0.00;0.62;0.00;0.00;0.62;3.23;1.70;;;20.90;23.40;;;;;;2271790;60;20351;-64
2024/03/25 01:34:31;0.00;0.00;0.62;0.00;0.00;0.62;3.10;1.60;;;21.00;23.50;;;;;;2271800;61;20347;-64
2024/03/25 01:36:57;0.00;0.00;0.62;0.00;0.00;0.62;2.73;1.73;;;20.90;23.40;;;;;;2272016;61;20375;-64
2024/03/25 01:39:26;0.00;0.00;0.62;0.00;0.00;0.62;2.90;1.80;;;21.00;23.50;;;;;;2272331;61;20861;-64
2024/03/25 01:41:54;0.00;0.00;0.62;0.00;0.00;0.62;3.23;1.70;;;21.00;23.50;;;;;;2271882;61;20362;-64
2024/03/25 01:44:20;0.00;0.00;0.62;0.00;0.00;0.62;2.90;1.50;;;20.90;23.40;;;;;;2272179;61;20627;-64
2024/03/25 01:46:46;0.00;0.00;0.62;0.00;0.00;0.62;2.60;2.10;;;21.00;23.50;;;;;;2271843;61;20835;-64
2024/03/25 01:49:13;0.00;0.00;0.62;0.00;0.00;0.62;3.47;1.80;;;20.90;23.40;;;;;;2271911;61;20401;-64
2024/03/25 01:51:41;0.00;0.00;0.62;0.00;0.00;0.62;5.60;1.60;;;20.90;23.40;;;;;;2271914;61;20351;-64
2024/03/25 01:54:08;0.00;0.00;0.62;0.00;0.00;0.62;2.80;1.80;;;20.90;24.00;;;;;;2272296;61;20344;-64
2024/03/25 01:56:36;0.00;0.00;0.62;0.00;0.00;0.62;2.33;1.53;;;20.90;23.50;;;;;;2271827;61;20981;-64
2024/03/25 01:59:04;0.00;0.00;0.62;0.00;0.00;0.62;2.37;1.40;;;20.90;23.40;;;;;;2271897;61;20362;-65
2024/03/25 02:01:31;0.00;0.00;0.62;0.00;0.00;0.62;3.10;1.40;;;20.90;23.40;;;;;;2272115;61;20497;-65
2024/03/25 02:03:57;0.00;0.00;0.62;0.00;0.00;0.62;3.13;1.90;;;20.90;23.40;;;;;;2271684;61;20360;-64
2024/03/25 02:06:28;0.00;0.00;0.62;0.00;0.00;0.62;3.20;1.63;;;20.90;23.40;;;;;;2272097;61;20367;-65
2024/03/25 02:08:56;0.00;0.00;0.62;0.00;0.00;0.62;2.90;1.80;;;20.90;23.40;;;;;;2272253;61;20900;-65
2024/03/25 02:11:23;0.00;0.00;0.62;0.00;0.00;0.62;2.70;1.77;;;20.90;23.40;;;;;;2271417;61;20401;-65
2024/03/25 02:13:50;0.00;0.00;0.62;0.00;0.00;0.62;4.77;1.83;;;20.90;24.00;;;;;;2272127;61;20420;-65
2024/03/25 02:16:18;0.00;0.00;0.62;0.00;0.00;0.62;3.80;2.07;;;20.90;23.40;;;;;;2271875;61;20378;-65
2024/03/25 02:18:44;0.00;0.00;0.62;0.00;0.00;0.62;3.10;1.87;;;20.90;23.40;;;;;;2271735;61;20355;-65
2024/03/25 02:21:11;0.00;0.00;0.62;0.00;0.00;0.62;3.47;1.80;;;20.90;23.40;;;;;;2271963;61;20897;-65
2024/03/25 02:23:40;0.00;0.00;0.62;0.00;0.00;0.62;3.90;2.00;;;20.90;23.40;;;;;;2271936;61;20428;-65
2024/03/25 02:26:08;0.00;0.00;0.62;0.00;0.00;0.62;5.70;1.70;;;20.90;23.50;;;;;;2271620;61;20901;-64
2024/03/25 02:28:34;0.00;0.00;0.62;0.00;0.00;0.62;3.43;2.03;;;20.90;23.50;;;;;;2271671;61;20923;-65
2024/03/25 02:31:00;0.00;0.00;0.62;0.00;0.00;0.62;2.60;1.57;;;20.90;23.40;;;;;;2272124;61;20355;-65
2024/03/25 02:33:26;0.00;0.00;0.62;0.00;0.00;0.62;2.70;1.70;;;20.90;23.40;;;;;;2271077;61;20351;-65
2024/03/25 02:35:52;0.00;0.00;0.62;0.00;0.00;0.62;2.90;1.80;;;20.90;23.50;;;;;;2271814;61;20352;-65
2024/03/25 02:38:19;0.00;0.00;0.62;0.00;0.00;0.62;2.60;1.60;;;20.90;23.40;;;;;;2271949;61;20377;-65
2024/03/25 02:40:46;0.00;0.00;0.62;0.00;0.00;0.62;2.60;1.90;;;20.90;23.50;;;;;;2271546;61;20354;-65
2024/03/25 02:43:14;0.00;0.00;0.62;0.00;0.00;0.62;3.40;1.80;;;20.90;23.40;;;;;;2271758;61;20407;-65
2024/03/25 02:45:40;0.00;0.00;0.62;0.00;0.00;0.62;3.43;1.93;;;20.90;23.40;;;;;;2271917;61;20358;-65
2024/03/25 02:48:07;0.00;0.00;0.62;0.00;0.00;0.62;3.10;1.30;;;20.90;23.50;;;;;;2271442;61;20403;-64
2024/03/25 02:50:33;0.00;0.00;0.62;0.00;0.00;0.62;3.80;2.23;;;20.90;23.50;;;;;;2267331;61;20864;-65
2024/03/25 02:52:59;0.00;0.00;0.62;0.00;0.00;0.62;3.10;1.60;;;20.90;23.50;;;;;;2267943;61;21023;-65
2024/03/25 02:55:25;0.00;0.00;0.62;0.00;0.00;0.62;3.07;1.87;;;20.90;23.50;;;;;;2265862;61;20363;-65
2024/03/25 02:57:52;0.00;0.00;0.62;0.00;0.00;0.62;3.60;1.90;;;20.90;23.50;;;;;;2271254;61;20375;-65
2024/03/25 03:00:19;0.00;0.00;0.62;0.00;0.00;0.62;2.17;1.30;;;20.90;23.50;;;;;;2272330;61;20841;-65
2024/03/25 03:02:45;0.00;0.00;0.62;0.00;0.00;0.62;3.10;1.30;;;20.90;23.40;;;;;;2271261;61;20367;-65
2024/03/25 03:05:12;0.00;0.00;0.62;0.00;0.00;0.62;1.90;1.23;;;20.90;23.40;;;;;;2270629;61;20401;-65
2024/03/25 03:07:38;0.00;0.00;0.62;0.00;0.00;0.62;2.73;1.50;;;20.90;23.40;;;;;;2271952;61;20920;-65
2024/03/25 03:10:05;0.00;0.00;0.62;0.00;0.00;0.62;4.00;1.77;;;20.90;23.40;;;;;;2271632;61;20347;-65
2024/03/25 03:12:31;0.00;0.00;0.62;0.00;0.00;0.62;3.17;1.80;;;20.90;23.40;;;;;;2271464;61;20446;-63
2024/03/25 03:14:57;0.00;0.00;0.62;0.00;0.00;0.62;2.40;1.40;;;20.90;23.40;;;;;;2271910;61;20864;-65
2024/03/25 03:17:24;0.00;0.00;0.62;0.00;0.00;0.62;2.30;1.50;;;20.90;23.40;;;;;;2271775;61;20368;-64
2024/03/25 03:19:51;0.00;0.00;0.62;0.00;0.00;0.62;2.50;1.50;;;20.90;23.40;;;;;;2271613;61;20477;-65
2024/03/25 03:22:17;0.00;0.00;0.62;0.00;0.00;0.62;3.43;1.47;;;20.90;23.40;;;;;;2271800;61;20411;-65
2024/03/25 03:24:43;0.00;0.00;0.62;0.00;0.00;0.62;3.30;1.70;;;20.90;23.40;;;;;;2271920;61;20865;-65
2024/03/25 03:27:09;0.00;0.00;0.62;0.00;0.00;0.62;2.30;1.50;;;20.90;23.40;;;;;;2271529;61;20370;-65
2024/03/25 03:29:35;0.00;0.00;0.62;0.00;0.00;0.62;2.73;1.57;;;20.90;23.40;;;;;;2271870;61;20348;-65
2024/03/25 03:32:01;0.00;0.00;0.62;0.00;0.00;0.62;3.70;1.73;;;20.90;23.40;;;;;;2271929;61;20507;-64
2024/03/25 03:34:29;0.00;0.00;0.62;0.00;0.00;0.62;3.00;1.63;;;20.90;23.40;;;;;;2271647;61;20378;-64
2024/03/25 03:36:55;0.00;0.00;0.62;0.00;0.00;0.62;1.87;1.10;;;20.90;23.40;;;;;;2271953;61;20408;-64
2024/03/25 03:39:21;0.00;0.00;0.62;0.00;0.00;0.62;2.73;1.33;;;20.90;23.40;;;;;;2271629;61;20876;-65
2024/03/25 03:41:47;0.00;0.00;0.62;0.00;0.00;0.62;1.97;1.40;;;20.90;23.40;;;;;;2271752;61;20442;-63
2024/03/25 03:44:15;0.00;0.00;0.62;0.00;0.00;0.62;2.73;1.40;;;20.90;23.40;;;;;;2272160;61;20398;-64
2024/03/25 03:46:41;0.00;0.00;0.62;0.00;0.00;0.62;2.27;1.47;;;20.90;23.40;;;;;;2272055;61;20856;-65
2024/03/25 03:49:07;0.00;0.00;0.62;0.00;0.00;0.62;3.60;1.60;;;20.90;23.40;;;;;;2271348;61;20348;-64
2024/03/25 03:51:34;0.00;0.00;0.62;0.00;0.00;0.62;2.00;1.20;;;20.90;23.40;;;;;;2271708;61;20386;-65
2024/03/25 03:54:00;0.00;0.00;0.62;0.00;0.00;0.62;2.10;1.10;;;20.90;23.40;;;;;;2271840;61;20351;-65
2024/03/25 03:56:27;0.00;0.00;0.62;0.00;0.00;0.62;2.20;1.40;;;20.90;23.40;;;;;;2271046;60;20680;-65
2024/03/25 03:58:53;0.00;0.00;0.62;0.00;0.00;0.62;2.17;1.30;;;20.90;23.40;;;;;;2271735;61;20359;-65
2024/03/25 04:01:19;0.00;0.00;0.62;0.00;0.00;0.62;2.73;1.00;;;20.90;23.40;;;;;;2271554;61;20832;-65
2024/03/25 04:03:45;0.00;0.00;0.62;0.00;0.00;0.62;2.00;1.30;;;20.90;23.40;;;;;;2271119;61;20850;-65
2024/03/25 04:06:13;0.00;0.00;0.62;0.00;0.00;0.62;3.03;1.40;;;20.90;23.40;;;;;;2271193;61;20371;-65
2024/03/25 04:08:41;0.00;0.00;0.62;0.00;0.00;0.62;1.97;0.90;;;20.90;23.40;;;;;;2270999;61;20385;-64
2024/03/25 04:11:07;0.00;0.00;0.62;0.00;0.00;0.62;2.40;1.00;;;20.90;23.40;;;;;;2271241;61;20763;-65
2024/03/25 04:13:34;0.00;0.00;0.62;0.00;0.00;0.62;4.67;1.43;;;20.90;23.90;;;;;;2271576;61;20362;-64
2024/03/25 04:16:05;0.00;0.00;0.62;0.00;0.00;0.62;2.80;1.50;;;20.80;23.40;;;;;;2271447;61;20367;-65
2024/03/25 04:18:33;0.00;0.00;0.62;0.00;0.00;0.62;2.03;1.07;;;20.90;23.40;;;;;;2271290;61;20355;-65
2024/03/25 04:20:59;0.00;0.00;0.62;0.00;0.00;0.62;1.90;1.10;;;20.90;23.40;;;;;;2271657;61;20454;-65
2024/03/25 04:23:26;0.00;0.00;0.62;0.00;0.00;0.62;2.70;1.30;;;20.90;23.40;;;;;;2271517;61;20537;-65
2024/03/25 04:25:54;0.00;0.00;0.62;0.00;0.00;0.62;2.37;1.20;;;20.80;23.40;;;;;;2271412;61;20932;-65
2024/03/25 04:28:20;0.00;0.00;0.62;0.00;0.00;0.62;1.67;1.00;;;20.80;23.40;;;;;;2271733;61;20355;-65
2024/03/25 04:30:52;0.00;0.00;0.62;0.00;0.00;0.62;2.20;1.10;;;20.80;23.40;;;;;;2271471;61;20388;-65
2024/03/25 04:33:18;0.00;0.00;0.62;0.00;0.00;0.62;2.50;1.10;;;20.80;23.40;;;;;;2271319;61;20351;-65
2024/03/25 04:35:46;0.00;0.00;0.62;0.00;0.00;0.62;2.63;1.13;;;20.80;23.30;;;;;;2271563;61;20355;-64
2024/03/25 04:38:13;0.00;0.00;0.62;0.00;0.00;0.62;2.27;1.00;;;20.80;23.40;;;;;;2270597;61;20359;-64
2024/03/25 04:40:39;0.00;0.00;0.62;0.00;0.00;0.62;3.10;1.17;;;20.80;23.40;;;;;;2270896;61;20355;-65
2024/03/25 04:43:07;0.00;0.00;0.62;0.00;0.00;0.62;2.37;1.03;;;20.80;23.40;;;;;;2271176;61;20383;-64
2024/03/25 04:45:33;0.00;0.00;0.62;0.00;0.00;0.62;1.57;0.97;;;20.80;23.40;;;;;;2271367;61;20351;-64
2024/03/25 04:47:59;0.00;0.00;0.62;0.00;0.00;0.62;3.10;1.10;;;20.80;23.40;;;;;;2271543;61;20381;-64
2024/03/25 04:50:26;0.00;0.00;0.62;0.00;0.00;0.62;2.67;1.03;;;20.80;23.40;;;;;;2271510;61;20351;-64
2024/03/25 04:52:52;0.00;0.00;0.62;0.00;0.00;0.62;2.77;1.20;;;20.80;23.40;;;;;;2271438;61;20355;-64
2024/03/25 04:55:18;0.00;0.00;0.62;0.00;0.00;0.62;3.40;1.13;;;20.80;23.40;;;;;;2270847;61;20542;-64
2024/03/25 04:57:44;0.00;0.00;0.62;0.00;0.00;0.62;1.93;1.17;;;20.80;23.40;;;;;;2271329;61;20824;-64
2024/03/25 05:00:13;0.00;0.00;0.62;0.00;0.00;0.62;2.30;1.67;;;20.80;23.40;;;;;;2271395;61;20356;-64
2024/03/25 05:02:40;0.00;0.00;0.62;0.00;0.00;0.62;2.40;1.23;;;20.80;23.40;;;;;;2270844;61;20943;-63
2024/03/25 05:05:07;0.00;0.00;0.62;0.00;0.00;0.62;3.17;1.40;;;20.80;23.40;;;;;;2271445;61;20362;-66
2024/03/25 05:07:33;0.00;0.00;0.62;0.00;0.00;0.62;2.47;1.30;;;20.80;23.40;;;;;;2271269;60;20428;-65
2024/03/25 05:10:00;0.00;0.00;0.62;0.00;0.00;0.62;2.33;1.00;;;20.80;23.40;;;;;;2271995;61;20347;-63
2024/03/25 05:12:30;0.00;0.00;0.62;0.00;0.00;0.62;2.90;1.13;;;20.80;23.40;;;;;;2271974;61;20442;-65
2024/03/25 05:14:56;0.00;0.00;0.62;0.00;0.00;0.62;3.00;1.40;;;20.80;23.40;;;;;;2272081;61;20358;-65
2024/03/25 05:17:23;0.00;0.00;0.62;0.00;0.00;0.62;2.73;1.30;;;20.80;23.40;;;;;;2271902;61;20367;-65
2024/03/25 05:19:50;0.00;0.00;0.62;0.00;0.00;0.62;3.40;1.00;;;20.80;23.40;;;;;;2272101;61;20880;-65
2024/03/25 05:22:17;0.00;0.00;0.62;0.00;0.00;0.62;2.00;1.37;;;20.80;23.40;;;;;;2272072;61;20348;-65
2024/03/25 05:24:43;0.00;0.00;0.62;0.00;0.00;0.62;3.23;1.20;;;20.80;24.00;;;;;;2272061;61;20442;-65
2024/03/25 05:27:09;0.00;0.00;0.62;0.00;0.00;0.62;3.00;1.43;;;20.80;23.40;;;;;;2272225;61;20373;-65
2024/03/25 05:29:35;0.00;0.00;0.62;0.00;0.00;0.62;2.50;1.47;;;20.80;23.40;;;;;;2272073;61;20413;-64
2024/03/25 05:32:02;0.00;0.00;0.62;0.00;0.00;0.62;3.57;1.87;;;20.80;23.40;;;;;;2272005;61;20366;-65
2024/03/25 05:34:31;0.00;0.00;0.62;0.00;0.00;0.62;2.80;1.20;;;20.80;23.40;;;;;;2272198;61;20355;-65
2024/03/25 05:36:57;0.00;0.00;0.62;0.00;0.00;0.62;3.40;1.20;;;20.80;23.40;;;;;;2271995;61;20375;-65
2024/03/25 05:39:23;0.00;0.00;0.62;0.00;0.00;0.62;3.07;1.30;;;20.80;23.40;;;;;;2271669;61;20404;-65
2024/03/25 05:41:50;0.00;0.00;0.62;0.00;0.00;0.62;2.60;1.30;;;20.80;23.40;;;;;;2271867;61;20350;-65
2024/03/25 05:44:17;0.00;0.00;0.62;0.00;0.00;0.62;2.67;1.00;;;20.80;23.40;;;;;;2272251;61;20466;-65
2024/03/25 05:46:43;0.00;0.00;0.62;0.00;0.00;0.62;2.13;1.03;;;20.80;23.40;;;;;;2271978;61;20663;-64
2024/03/25 05:49:09;0.00;0.00;0.62;0.00;0.00;0.62;3.00;1.40;;;20.80;23.40;;;;;;2272155;61;20743;-65
2024/03/25 05:51:36;0.00;0.00;0.62;0.00;0.00;0.62;2.37;1.10;;;20.80;24.00;;;;;;2271880;61;20351;-65
2024/03/25 05:54:03;0.00;0.00;0.62;0.00;0.00;0.62;2.20;1.20;;;20.80;23.40;;;;;;2271756;61;20359;-65
2024/03/25 05:56:31;0.00;0.00;0.62;0.00;0.00;0.62;2.07;1.27;;;20.80;23.40;;;;;;2271804;61;20363;-64
2024/03/25 05:58:58;0.00;0.00;0.62;0.00;0.00;0.62;2.97;1.10;;;20.80;23.40;;;;;;2271990;61;20348;-65
2024/03/25 06:01:24;0.00;0.00;0.62;0.00;0.00;0.62;4.00;1.60;;;20.80;23.40;;;;;;2271401;61;20348;-65
2024/03/25 06:03:51;0.00;0.00;0.62;0.00;0.00;0.62;2.10;1.17;;;20.80;23.40;;;;;;2271999;61;20402;-64
2024/03/25 06:06:17;0.00;0.00;0.62;0.00;0.00;0.62;2.80;1.67;;;20.80;23.40;;;;;;2272025;61;20371;-64
2024/03/25 06:08:45;0.00;0.00;0.62;0.00;0.00;0.62;3.73;1.70;;;20.80;23.40;;;;;;2271671;61;20360;-64
2024/03/25 06:11:11;0.00;0.00;0.62;0.00;0.00;0.62;2.10;1.00;;;20.80;23.40;;;;;;2271826;61;20359;-64
2024/03/25 06:13:37;0.00;0.00;0.62;0.00;0.00;0.62;4.17;1.30;;;20.80;23.40;;;;;;2272006;61;20442;-65
2024/03/25 06:16:04;0.00;0.00;0.62;0.00;0.00;0.62;2.40;1.50;;;20.80;23.40;;;;;;2271705;61;20371;-65
2024/03/25 06:18:30;0.00;0.00;0.62;0.00;0.00;0.62;2.77;1.40;;;20.80;23.40;;;;;;2271897;60;20352;-65
2024/03/25 06:20:56;0.00;0.00;0.62;0.00;0.00;0.62;2.57;1.40;;;20.80;23.40;;;;;;2271840;61;20475;-65
2024/03/25 06:23:24;0.00;0.00;0.62;0.00;0.00;0.62;3.07;1.53;;;20.80;23.40;;;;;;2271865;61;20387;-64
2024/03/25 06:25:53;0.00;0.00;0.62;0.00;0.00;0.62;3.33;1.57;;;20.80;23.40;;;;;;2272223;61;20506;-65
2024/03/25 06:28:19;0.00;0.00;0.62;0.00;0.00;0.62;3.30;1.80;;;20.80;23.50;;;;;;2271909;61;20352;-65
2024/03/25 06:36:17;0.00;0.00;0.62;0.00;0.00;0.62;4.40;1.80;;;20.80;23.40;;;;;;2271759;61;20371;-64
2024/03/25 06:38:43;0.00;0.00;0.62;0.00;0.00;0.62;3.73;2.07;;;20.80;23.50;;;;;;2271941;61;20361;-65
2024/03/25 06:41:11;0.00;0.00;0.62;0.00;0.00;0.62;5.83;2.63;;;20.80;23.50;;;;;;2271906;61;20347;-64
2024/03/25 06:43:43;0.00;0.00;0.62;0.00;0.00;0.62;6.53;3.37;;;20.80;23.50;;;;;;2271751;61;20904;-65
2024/03/25 06:46:11;0.00;0.00;0.62;0.00;0.00;0.62;4.80;3.10;;;20.80;23.50;;;;;;2271567;61;20454;-65
2024/03/25 06:48:37;0.00;0.00;0.62;0.00;0.00;0.62;6.27;3.00;;;20.80;23.50;;;;;;2271908;61;20359;-65
2024/03/25 06:51:05;0.00;0.00;0.62;0.00;0.00;0.62;4.93;3.50;;;20.80;23.50;;;;;;2271894;61;20492;-65
2024/03/25 06:53:31;0.00;0.00;0.62;0.00;0.00;0.62;5.07;3.40;;;20.80;23.50;;;;;;2271521;61;20387;-65
2024/03/25 06:55:59;0.00;0.00;0.62;0.00;0.00;0.62;7.37;4.57;;;20.80;23.50;;;;;;2271398;61;20359;-65
2024/03/25 06:58:28;0.00;0.00;0.62;0.00;0.00;0.62;6.27;4.50;;;20.80;23.50;;;;;;2271372;61;20355;-65
2024/03/25 07:00:56;0.00;0.00;0.62;0.00;0.00;0.62;7.33;4.30;;;20.80;23.50;;;;;;2271123;61;20351;-65
2024/03/25 07:03:23;0.00;0.00;0.62;0.00;0.00;0.62;7.30;4.80;;;20.80;23.50;;;;;;2271402;61;21053;-64
2024/03/25 07:05:52;0.00;0.00;0.62;0.00;0.00;0.62;6.70;4.93;;;20.80;23.50;;;;;;2271749;61;20351;-64
2024/03/25 07:08:19;0.00;0.00;0.62;0.00;0.00;0.62;7.70;5.23;;;20.80;23.50;;;;;;2271784;61;20373;-65
2024/03/25 07:10:46;0.00;0.00;0.62;0.00;0.00;0.62;7.30;6.00;;;20.80;23.50;;;;;;2271817;61;20446;-65
2024/03/25 07:13:13;0.00;0.00;0.62;0.00;0.00;0.62;9.50;5.77;;;20.80;23.50;;;;;;2271447;61;20412;-65
2024/03/25 07:15:42;0.00;0.00;0.62;0.00;0.00;0.62;9.17;6.97;;;20.80;23.50;;;;;;2271839;61;20927;-65
2024/03/25 07:18:10;0.00;0.00;0.62;0.00;0.00;0.62;9.87;7.30;;;20.80;23.60;;;;;;2272093;61;20367;-65
2024/03/25 07:20:44;0.00;0.00;0.62;0.00;0.00;0.62;12.17;7.77;;;20.80;23.60;;;;;;2274302;61;20347;-65
2024/03/25 07:23:11;0.00;0.00;0.62;0.00;0.00;0.62;9.60;7.90;;;20.80;23.60;;;;;;2272328;61;20405;-65
2024/03/25 07:25:37;0.00;0.00;0.62;0.00;0.00;0.62;13.67;8.80;;;20.80;23.60;;;;;;2271562;61;20347;-64
2024/03/25 07:28:05;0.00;0.00;0.62;0.00;0.00;0.62;9.67;7.03;;;20.80;23.60;;;;;;2272187;61;20375;-65
2024/03/25 07:30:32;0.00;0.00;0.62;0.00;0.00;0.62;10.17;8.10;;;20.80;23.60;;;;;;2271249;61;20362;-65
2024/03/25 07:32:59;0.00;0.00;0.62;0.00;0.00;0.62;9.30;7.87;;;20.80;23.60;;;;;;2271965;61;20374;-65
2024/03/25 07:35:26;0.00;0.00;0.62;0.00;0.00;0.62;11.13;8.00;;;20.80;23.60;;;;;;2272258;61;20740;-65
2024/03/25 07:37:52;0.00;0.00;0.62;0.00;0.00;0.62;13.57;8.57;;;20.80;23.60;;;;;;2271721;61;20394;-65
2024/03/25 07:40:19;0.00;0.00;0.62;0.00;0.00;0.62;12.20;8.83;;;20.80;23.60;;;;;;2271834;61;20748;-64
2024/03/25 07:42:45;0.00;0.00;0.62;0.00;0.00;0.62;10.03;7.00;;;20.80;23.60;;;;;;2271813;61;20820;-65
2024/03/25 07:45:11;0.00;0.00;0.62;0.00;0.00;0.62;10.37;9.27;;;20.80;23.60;;;;;;2273665;61;20801;-65
2024/03/25 07:47:37;0.00;0.00;0.62;0.00;0.00;0.62;11.23;8.20;;;20.80;23.60;;;;;;2271846;61;20394;-65
2024/03/25 07:50:08;0.00;0.00;0.62;0.00;0.00;0.62;11.83;9.00;;;20.80;23.60;;;;;;2271805;61;20348;-65
2024/03/25 07:52:39;0.00;0.00;0.62;0.00;0.00;0.62;11.40;9.37;;;20.80;23.60;;;;;;2271504;61;20360;-65
2024/03/25 07:55:06;0.00;0.00;0.62;0.00;0.00;0.62;12.83;9.37;;;20.80;23.60;;;;;;2271841;61;20358;-65
2024/03/25 07:57:33;0.00;0.00;0.62;0.00;0.00;0.62;15.00;9.70;;;20.80;23.60;;;;;;2271649;61;20382;-65
2024/03/25 07:59:59;0.00;0.00;0.62;0.00;0.00;0.62;11.97;9.80;;;20.80;23.60;;;;;;2271065;61;20444;-65
2024/03/25 08:02:25;0.00;0.00;0.62;0.00;0.00;0.62;11.93;9.20;;;20.90;23.70;;;;;;2271552;61;20370;-65
2024/03/25 08:04:51;0.00;0.00;0.62;0.00;0.00;0.62;12.13;8.60;;;20.90;23.70;;;;;;2271851;61;20885;-65
2024/03/25 08:07:19;0.00;0.00;0.62;0.00;0.00;0.62;12.13;8.97;;;20.90;23.70;;;;;;2271399;61;20769;-65
2024/03/25 08:09:45;0.00;0.00;0.62;0.00;0.00;0.62;12.40;8.97;;;20.90;23.70;;;;;;2271797;61;20435;-65
2024/03/25 08:12:11;0.00;0.00;0.62;0.00;0.00;0.62;11.37;8.20;;;20.90;23.70;;;;;;2271663;61;21004;-65
2024/03/25 08:14:37;0.00;0.00;0.62;0.00;0.00;0.62;9.60;7.77;;;20.90;23.70;;;;;;2271745;61;20359;-64
2024/03/25 08:17:04;0.00;0.00;0.62;0.00;0.00;0.62;10.10;8.43;;;20.90;23.70;;;;;;2271934;61;20375;-64
2024/03/25 08:19:31;0.00;0.00;0.62;0.00;0.00;0.62;9.40;7.77;;;20.90;23.70;;;;;;2271951;61;20351;-65
2024/03/25 08:21:57;0.00;0.00;0.62;0.00;0.00;0.62;10.23;8.00;;;20.90;23.70;;;;;;2271643;61;20355;-65
2024/03/25 08:24:25;0.00;0.00;0.62;0.00;0.00;0.62;10.03;7.50;;;20.90;23.70;;;;;;2271828;61;20375;-64
2024/03/25 08:26:51;0.00;0.00;0.62;0.00;0.00;0.62;9.90;8.13;;;20.90;23.70;;;;;;2271744;61;20367;-64
2024/03/25 08:29:17;0.00;0.00;0.62;0.00;0.00;0.62;9.27;7.07;;;20.90;23.70;;;;;;2271562;61;20855;-65
2024/03/25 08:31:43;0.00;0.00;0.62;0.00;0.00;0.62;9.80;6.70;;;20.90;23.70;;;;;;2271491;61;20344;-64
2024/03/25 08:34:09;0.00;0.00;0.62;0.00;0.00;0.62;10.00;6.70;;;20.90;23.70;;;;;;2271836;61;20346;-64
2024/03/25 08:36:36;0.00;0.00;0.62;0.00;0.00;0.62;9.27;6.93;;;20.90;23.70;;;;;;2271622;61;20410;-66
2024/03/25 08:39:02;0.00;0.00;0.62;0.00;0.00;0.62;7.60;5.60;;;20.90;23.70;;;;;;2271735;61;20366;-65
2024/03/25 08:41:29;0.00;0.00;0.62;0.00;0.00;0.62;7.60;5.53;;;20.90;23.70;;;;;;2271940;61;20362;-65
2024/03/25 08:43:56;0.00;0.00;0.62;0.00;0.00;0.62;7.90;5.17;;;20.90;23.70;;;;;;2271462;61;20391;-65
2024/03/25 08:46:22;0.00;0.00;0.62;0.00;0.00;0.62;10.67;6.77;;;20.90;23.70;;;;;;2271531;61;20367;-65
2024/03/25 08:48:48;0.00;0.00;0.62;0.00;0.00;0.62;10.27;6.23;;;20.90;23.70;;;;;;2271839;61;20463;-64
2024/03/25 08:51:17;0.00;0.00;0.62;0.00;0.00;0.62;10.00;5.40;;;20.90;23.70;;;;;;2271555;61;20439;-65
2024/03/25 08:53:43;0.00;0.00;0.62;0.00;0.00;0.62;8.00;4.97;;;20.90;24.20;;;;;;2271748;61;20434;-63
2024/03/25 08:56:09;0.00;0.00;0.62;0.00;0.00;0.62;9.47;5.60;;;21.00;23.70;;;;;;2271608;61;20942;-64
2024/03/25 08:58:37;0.00;0.00;0.62;0.00;0.00;0.62;7.63;5.57;;;21.00;23.70;;;;;;2271683;61;20925;-65
2024/03/25 09:01:03;0.00;0.00;0.62;0.00;0.00;0.62;6.37;5.07;;;20.90;23.70;;;;;;2271480;61;20814;-63
2024/03/25 09:03:29;0.00;0.00;0.62;0.00;0.00;0.62;6.50;5.10;;;21.00;23.70;;;;;;2271323;61;20976;-66
2024/03/25 09:05:56;0.00;0.00;0.62;0.00;0.00;0.62;7.10;5.20;;;21.00;23.70;;;;;;2271633;61;20868;-64
2024/03/25 09:08:22;0.00;0.00;0.62;0.00;0.00;0.62;6.33;4.57;;;20.90;23.70;;;;;;2271401;61;20348;-65
2024/03/25 09:11:03;0.00;0.00;0.62;0.00;0.00;0.62;8.23;4.97;;;21.00;23.70;;;;;;2271665;61;20530;-64
2024/03/25 09:13:30;0.00;0.00;0.62;0.00;0.00;0.62;5.83;4.43;;;21.00;23.70;;;;;;2271287;61;20348;-65
2024/03/25 09:15:58;0.00;0.00;0.62;0.00;0.00;0.62;7.23;4.70;;;21.00;23.70;;;;;;2271137;61;20759;-64
2024/03/25 09:18:24;0.00;0.00;0.62;0.00;0.00;0.62;6.40;4.63;;;21.00;23.70;;;;;;2270996;61;20451;-65
2024/03/25 09:20:53;0.00;0.00;0.62;0.00;0.00;0.62;5.97;3.90;;;21.00;23.70;;;;;;2271676;61;20336;-65
2024/03/25 09:23:19;0.00;0.00;0.62;0.00;0.00;0.62;5.90;3.77;;;20.90;23.70;;;;;;2271309;61;20375;-64
2024/03/25 09:25:52;0.00;0.00;0.62;0.00;0.00;0.62;7.27;3.67;;;21.00;23.70;;;;;;2271200;61;20344;-65
2024/03/25 09:28:18;0.00;0.00;0.62;0.00;0.00;0.62;7.93;5.10;;;21.00;23.70;;;;;;2271556;61;20363;-66
2024/03/25 09:30:44;0.00;0.00;0.62;0.00;0.00;0.62;5.93;4.20;;;21.00;23.70;;;;;;2271184;61;20724;-65
2024/03/25 09:33:12;0.00;0.00;0.62;0.00;0.00;0.62;4.60;3.40;;;21.00;23.70;;;;;;2271646;61;20339;-65
2024/03/25 09:35:38;0.00;0.00;0.62;0.00;0.00;0.62;6.37;3.90;;;21.00;23.70;;;;;;2271216;61;20907;-64
2024/03/25 09:38:04;0.00;0.00;0.62;0.00;0.00;0.62;6.17;4.20;;;21.00;23.70;;;;;;2271366;61;20443;-65
2024/03/25 09:40:30;0.00;0.00;0.62;0.00;0.00;0.62;7.60;4.57;;;21.00;23.70;;;;;;2271886;61;20390;-64
2024/03/25 09:43:01;0.00;0.00;0.62;0.00;0.00;0.62;6.77;4.00;;;21.00;23.70;;;;;;2271510;61;21053;-65
2024/03/25 09:45:30;0.00;0.00;0.62;0.00;0.00;0.62;5.40;3.70;;;21.00;23.70;;;;;;2271243;61;20420;-65